Vitsentzos Kornaros — SXNX — position and weather

sailwx.info

Track history (hours):
 
Tides and Currents Weather Stations Pressure Air Temp Water Temp Dewpoint Dewpoint Depression Visibility Wind Speed Wind Dir Waves Ship Positions

Vitsentzos Kornaros

Last reported at 2015-Mar-29 05:33 UTC. Time now 2015-Mar-29 12:32 UTC.
Position N 36°46' E 025°35'.

Length 128 m; draft 4.5 m.

Type: Passenger vessel. MMSI: 239311000.

Date/timePositionNaut miles runAvg speedWind from/ knotsBaromVisibWave heightAir tempDewpointWater temp
2015-Mar-29 05:33N 36°46' E 025°35'1413.7
2015-Mar-29 04:33N 36°44' E 025°52'1414.3
2015-Mar-29 03:33N 36°42' E 026°10'85 1.7
2015-Mar-27 01:32N 35°25' E 026°56'0 0.0
2015-Mar-26 03:19N 35°25' E 026°56'0 0.0
2015-Mar-26 02:33N 35°25' E 026°56'0 0.0
2015-Mar-25 23:13N 35°25' E 026°56'0 0.0
2015-Mar-25 22:31N 35°25' E 026°56'0 0.0
2015-Mar-25 21:32N 35°25' E 026°56'0 0.0
2015-Mar-25 20:09N 35°25' E 026°56'1 1.9
2015-Mar-25 19:25N 35°27' E 026°56'1213.1
2015-Mar-25 18:32N 35°23' E 026°42'50 7.2
2015-Mar-25 11:33N 35°55' E 025°54'1313.5
2015-Mar-25 10:33N 36°08' E 025°50'1312.8
2015-Mar-25 09:31N 36°21' E 025°46'1010.1
2015-Mar-25 08:33N 36°20' E 025°34'1010.0
2015-Mar-25 07:33N 36°23' E 025°22'3 2.9
2015-Mar-25 06:30N 36°23' E 025°26'7 7.6
2015-Mar-25 05:31N 36°24' E 025°16'1613.6
2015-Mar-25 04:21N 36°32' E 024°60'8113.6
2015-Mar-24 22:22N 37°33' E 023°52'1012.5
2015-Mar-24 21:33N 37°40' E 023°42'1212.2
2015-Mar-24 20:33N 37°51' E 023°36'6 5.9
2015-Mar-24 19:31N 37°57' E 023°38'0 0.0
2015-Mar-24 18:33N 37°57' E 023°38'0 0.0
2015-Mar-24 17:31N 37°57' E 023°38'0 0.0
2015-Mar-24 16:33N 37°57' E 023°38'8 8.3
2015-Mar-24 15:33N 37°49' E 023°41'1312.9
2015-Mar-24 14:33N 37°36' E 023°42'3 0.1
2015-Mar-23 15:33N 37°39' E 023°41'1414.5
2015-Mar-23 14:33N 37°53' E 023°37'5 4.4
2015-Mar-23 13:32N 37°57' E 023°38'0 0.0
2015-Mar-23 12:33N 37°57' E 023°38'0 0.0
2015-Mar-23 11:33N 37°57' E 023°38'0 0.0
2015-Mar-23 10:32N 37°57' E 023°38'0 0.0
2015-Mar-23 09:32N 37°57' E 023°38'0 0.0
2015-Mar-23 08:32N 37°57' E 023°38'0 0.0
2015-Mar-23 07:32N 37°57' E 023°38'0 0.0
2015-Mar-23 06:33N 37°57' E 023°38'0 0.0
2015-Mar-23 05:33N 37°57' E 023°38'0 0.0
2015-Mar-23 04:33N 37°57' E 023°38'5 4.9
2015-Mar-23 03:33N 37°52' E 023°39'1414.2
2015-Mar-23 02:33N 37°38' E 023°44'  
2015-Mar-20 18:33N 37°31' E 023°39'1414.2
2015-Mar-20 17:33N 37°45' E 023°39'1211.8
2015-Mar-20 16:32N 37°57' E 023°38'0 0.0
2015-Mar-20 15:33N 37°57' E 023°38'0 0.0
2015-Mar-20 14:32N 37°57' E 023°38'4 4.2
2015-Mar-20 13:33N 37°53' E 023°39'1414.2
2015-Mar-20 12:33N 37°40' E 023°46'7614.3
2015-Mar-20 07:15N 36°41' E 024°47'1014.4
2015-Mar-20 06:33N 36°34' E 024°55'1514.5
2015-Mar-20 05:32N 36°27' E 025°11'1211.8
2015-Mar-20 04:29N 36°23' E 025°26'4 4.7
2015-Mar-20 03:32N 36°21' E 025°21'1414.6
2015-Mar-20 02:33N 36°20' E 025°39'7 6.6
2015-Mar-20 01:33N 36°17' E 025°47'1514.7
2015-Mar-20 00:32N 36°03' E 025°52'  
Track history (hours):
 
Tides and Currents Weather Stations Pressure Air Temp Water Temp Dewpoint Dewpoint Depression Visibility Wind Speed Wind Dir Waves Ship Positions

Vitsentzos Kornaros

Last reported at 2015-Mar-29 05:33 UTC. Time now 2015-Mar-29 12:32 UTC.
Position N 36°46' E 025°35'.

Length 128 m; draft 4.5 m.

Type: Passenger vessel. MMSI: 239311000.

Date/timePositionNaut miles runAvg speedWind from/ knotsBaromVisibWave heightAir tempDewpointWater temp
2015-Mar-29 05:33N 36°46' E 025°35'1413.7
2015-Mar-29 04:33N 36°44' E 025°52'1414.3
2015-Mar-29 03:33N 36°42' E 026°10'85 1.7
2015-Mar-27 01:32N 35°25' E 026°56'0 0.0
2015-Mar-26 03:19N 35°25' E 026°56'0 0.0
2015-Mar-26 02:33N 35°25' E 026°56'0 0.0
2015-Mar-25 23:13N 35°25' E 026°56'0 0.0
2015-Mar-25 22:31N 35°25' E 026°56'0 0.0
2015-Mar-25 21:32N 35°25' E 026°56'0 0.0
2015-Mar-25 20:09N 35°25' E 026°56'1 1.9
2015-Mar-25 19:25N 35°27' E 026°56'1213.1
2015-Mar-25 18:32N 35°23' E 026°42'50 7.2
2015-Mar-25 11:33N 35°55' E 025°54'1313.5
2015-Mar-25 10:33N 36°08' E 025°50'1312.8
2015-Mar-25 09:31N 36°21' E 025°46'1010.1
2015-Mar-25 08:33N 36°20' E 025°34'1010.0
2015-Mar-25 07:33N 36°23' E 025°22'3 2.9
2015-Mar-25 06:30N 36°23' E 025°26'7 7.6
2015-Mar-25 05:31N 36°24' E 025°16'1613.6
2015-Mar-25 04:21N 36°32' E 024°60'8113.6
2015-Mar-24 22:22N 37°33' E 023°52'1012.5
2015-Mar-24 21:33N 37°40' E 023°42'1212.2
2015-Mar-24 20:33N 37°51' E 023°36'6 5.9
2015-Mar-24 19:31N 37°57' E 023°38'0 0.0
2015-Mar-24 18:33N 37°57' E 023°38'0 0.0
2015-Mar-24 17:31N 37°57' E 023°38'0 0.0
2015-Mar-24 16:33N 37°57' E 023°38'8 8.3
2015-Mar-24 15:33N 37°49' E 023°41'1312.9
2015-Mar-24 14:33N 37°36' E 023°42'3 0.1
2015-Mar-23 15:33N 37°39' E 023°41'1414.5
2015-Mar-23 14:33N 37°53' E 023°37'5 4.4
2015-Mar-23 13:32N 37°57' E 023°38'0 0.0
2015-Mar-23 12:33N 37°57' E 023°38'0 0.0
2015-Mar-23 11:33N 37°57' E 023°38'0 0.0
2015-Mar-23 10:32N 37°57' E 023°38'0 0.0
2015-Mar-23 09:32N 37°57' E 023°38'0 0.0
2015-Mar-23 08:32N 37°57' E 023°38'0 0.0
2015-Mar-23 07:32N 37°57' E 023°38'0 0.0
2015-Mar-23 06:33N 37°57' E 023°38'0 0.0
2015-Mar-23 05:33N 37°57' E 023°38'0 0.0
2015-Mar-23 04:33N 37°57' E 023°38'5 4.9
2015-Mar-23 03:33N 37°52' E 023°39'1414.2
2015-Mar-23 02:33N 37°38' E 023°44'  
2015-Mar-20 18:33N 37°31' E 023°39'1414.2
2015-Mar-20 17:33N 37°45' E 023°39'1211.8
2015-Mar-20 16:32N 37°57' E 023°38'0 0.0
2015-Mar-20 15:33N 37°57' E 023°38'0 0.0
2015-Mar-20 14:32N 37°57' E 023°38'4 4.2
2015-Mar-20 13:33N 37°53' E 023°39'1414.2
2015-Mar-20 12:33N 37°40' E 023°46'7614.3
2015-Mar-20 07:15N 36°41' E 024°47'1014.4
2015-Mar-20 06:33N 36°34' E 024°55'1514.5
2015-Mar-20 05:32N 36°27' E 025°11'1211.8
2015-Mar-20 04:29N 36°23' E 025°26'4 4.7
2015-Mar-20 03:32N 36°21' E 025°21'1414.6
2015-Mar-20 02:33N 36°20' E 025°39'7 6.6
2015-Mar-20 01:33N 36°17' E 025°47'1514.7
2015-Mar-20 00:32N 36°03' E 025°52'  

Dump ship's entire track history